Time;durP1;ratioP1;P1;durP2;ratioP2;P2;SDS_P1;SDS_P2;PMS_P1;PMS_P2;Temp;Humidity;BMP_temperature;BMP_pressure;BME280_temperature;BME280_humidity;BME280_pressure;Samples;Min_cycle;Max_cycle;Signal;HPM_P1;HPM_P2
2021/06/04 00:00:30;;;;;;;8.48;3.28;;;16.90;57.80;;;;;;5095710;28;20024;-40
2021/06/04 00:02:58;;;;;;;4.85;2.85;;;16.90;57.90;;;;;;5095728;28;20032;-37
2021/06/04 00:05:29;;;;;;;4.53;2.50;;;16.90;57.90;;;;;;5095644;28;20028;-38
2021/06/04 00:07:54;;;;;;;;;;;16.80;57.90;;;;;;5096344;28;20028;-37
2021/06/04 00:10:26;;;;;;;5.63;2.90;;;16.80;57.70;;;;;;5095991;28;19904;-39
2021/06/04 00:12:52;;;;;;;7.75;3.10;;;16.80;57.90;;;;;;5096169;28;20035;-36
2021/06/04 00:15:24;;;;;;;4.53;3.08;;;16.70;57.90;;;;;;5096144;28;20058;-38
2021/06/04 00:17:49;;;;;;;3.60;2.97;;;16.70;57.90;;;;;;5095953;28;20048;-35
2021/06/04 00:20:21;;;;;;;8.65;3.28;;;16.70;58.00;;;;;;5095474;28;20081;-40
2021/06/04 00:22:47;;;;;;;5.10;3.05;;;16.70;58.10;;;;;;5096378;28;20035;-38
2021/06/04 00:25:13;;;;;;;4.22;2.90;;;16.70;58.10;;;;;;5095135;28;20016;-39
2021/06/04 00:27:38;;;;;;;4.70;2.83;;;16.70;58.20;;;;;;5096313;28;20282;-36
2021/06/04 00:30:06;;;;;;;7.90;3.22;;;16.70;58.20;;;;;;5095305;28;20115;-39
2021/06/04 00:32:32;;;;;;;5.85;3.00;;;16.70;58.30;;;;;;5096029;28;20039;-36
2021/06/04 00:34:58;;;;;;;7.18;3.33;;;16.70;58.40;;;;;;5095637;28;20412;-37
2021/06/04 00:37:23;;;;;;;6.88;3.30;;;16.60;58.50;;;;;;5095570;28;20093;-38
2021/06/04 00:39:49;;;;;;;7.88;3.15;;;16.60;59.30;;;;;;5095574;28;20028;-36
2021/06/04 00:42:15;;;;;;;5.85;3.03;;;16.60;58.80;;;;;;5095387;28;20043;-36
2021/06/04 00:44:41;;;;;;;7.15;3.42;;;16.60;58.80;;;;;;5095268;28;20039;-39
2021/06/04 00:47:07;;;;;;;7.22;3.38;;;16.60;58.90;;;;;;5095970;28;20028;-39
2021/06/04 00:49:34;;;;;;;3.97;3.00;;;16.60;59.00;;;;;;5095338;28;20031;-35
2021/06/04 00:52:07;;;;;;;6.90;3.08;;;16.60;59.00;;;;;;5095879;28;20039;-35
2021/06/04 00:54:34;;;;;;;7.75;3.42;;;16.60;58.90;;;;;;5095677;28;20431;-40
2021/06/04 00:57:00;;;;;;;4.18;2.97;;;16.60;58.90;;;;;;5095560;28;20028;-35
2021/06/04 00:59:28;;;;;;;6.63;3.50;;;16.60;58.90;;;;;;5095490;28;20032;-36
2021/06/04 01:01:55;;;;;;;12.85;3.80;;;16.60;58.90;;;;;;5095680;28;20047;-35
2021/06/04 01:04:24;;;;;;;5.30;3.42;;;16.60;58.90;;;;;;5095242;28;20032;-38
2021/06/04 01:07:17;;;;;;;4.28;3.22;;;16.60;58.90;;;;;;5095605;28;20032;-39
2021/06/04 01:10:24;;;;;;;5.78;3.05;;;16.60;58.90;;;;;;5095404;28;20028;-35
2021/06/04 01:12:55;;;;;;;4.75;3.03;;;16.60;58.90;;;;;;5095072;28;20461;-38
2021/06/04 01:15:36;;;;;;;7.35;3.17;;;16.60;59.10;;;;;;5098552;28;20032;-38
2021/06/04 01:18:09;;;;;;;5.07;3.50;;;16.60;59.20;;;;;;5098987;28;20043;-39
2021/06/04 01:20:59;;;;;;;6.30;3.25;;;16.60;59.20;;;;;;5099254;28;20035;-39
2021/06/04 01:23:47;;;;;;;3.38;2.83;;;16.50;59.10;;;;;;5098867;28;20028;-35
2021/06/04 01:26:24;;;;;;;4.00;3.03;;;16.50;59.20;;;;;;5099077;28;20021;-38
2021/06/04 01:28:54;;;;;;;6.53;3.25;;;16.50;59.30;;;;;;5098713;28;20028;-39
2021/06/04 01:31:31;;;;;;;5.57;3.15;;;16.40;59.50;;;;;;5099490;28;20024;-35
2021/06/04 01:34:02;;;;;;;5.57;3.40;;;16.40;59.60;;;;;;5098505;28;20107;-35
2021/06/04 01:36:38;;;;;;;7.18;3.63;;;16.40;59.80;;;;;;5099218;28;20041;-35
2021/06/04 01:39:12;;;;;;;5.80;2.97;;;16.30;60.40;;;;;;5098124;28;20401;-39
2021/06/04 01:41:40;;;;;;;8.00;3.35;;;16.30;60.00;;;;;;5098950;28;20036;-37
2021/06/04 01:44:10;;;;;;;4.32;2.90;;;16.30;60.10;;;;;;5098188;28;20023;-35
2021/06/04 01:46:41;;;;;;;5.65;3.10;;;16.30;60.30;;;;;;5099141;28;20035;-39
2021/06/04 01:49:19;;;;;;;9.70;3.80;;;16.30;60.40;;;;;;5098171;28;20024;-35
2021/06/04 01:51:55;;;;;;;7.57;3.50;;;16.30;60.30;;;;;;5098991;28;20427;-39
2021/06/04 01:54:46;;;;;;;5.57;3.50;;;16.20;60.20;;;;;;5098417;28;20062;-39
2021/06/04 01:57:20;;;;;;;10.10;3.53;;;16.20;60.20;;;;;;5098121;28;20048;-39
2021/06/04 01:59:51;;;;;;;5.72;3.17;;;16.20;60.40;;;;;;5098288;28;20032;-35
2021/06/04 02:02:16;;;;;;;;;;;16.20;60.60;;;;;;5097778;28;20036;-35
2021/06/04 02:04:47;;;;;;;4.57;2.97;;;16.10;60.20;;;;;;5098227;28;19904;-38
2021/06/04 02:07:16;;;;;;;8.80;3.60;;;16.10;60.70;;;;;;5098509;28;20300;-36
2021/06/04 02:09:43;;;;;;;8.52;3.33;;;16.10;61.00;;;;;;5097952;28;20059;-35
2021/06/04 02:12:10;;;;;;;9.27;3.33;;;16.10;61.20;;;;;;5098510;28;20046;-35
2021/06/04 02:14:44;;;;;;;10.05;3.08;;;16.00;61.30;;;;;;5098040;28;20423;-37
2021/06/04 02:17:22;;;;;;;8.43;3.38;;;16.10;61.50;;;;;;5098367;28;20032;-35
2021/06/04 02:20:06;;;;;;;10.57;3.90;;;16.10;61.60;;;;;;5098032;28;20031;-39
2021/06/04 02:23:02;;;;;;;5.85;3.20;;;16.10;61.70;;;;;;5098433;28;20064;-35
2021/06/04 02:25:34;;;;;;;4.03;3.08;;;16.10;61.70;;;;;;5097668;28;20095;-36
2021/06/04 02:28:25;;;;;;;3.55;2.83;;;16.10;61.90;;;;;;5098025;28;20020;-36
2021/06/04 02:31:02;;;;;;;6.47;3.53;;;16.10;62.00;;;;;;5098082;28;20063;-35
2021/06/04 02:33:34;;;;;;;6.53;4.65;;;16.10;62.10;;;;;;5097450;28;20035;-35
2021/06/04 02:36:06;;;;;;;4.03;3.05;;;16.10;62.10;;;;;;5097950;28;20036;-37
2021/06/04 02:38:38;;;;;;;6.63;3.55;;;16.10;62.10;;;;;;5097316;28;20040;-38
2021/06/04 02:41:23;;;;;;;4.25;3.65;;;16.10;62.20;;;;;;5097649;28;20028;-36
2021/06/04 02:43:53;;;;;;;6.53;3.40;;;16.10;62.10;;;;;;5097216;28;20027;-38
2021/06/04 02:46:23;;;;;;;7.90;3.08;;;16.00;62.10;;;;;;5097434;28;20035;-37
2021/06/04 02:48:51;;;;;;;7.22;3.38;;;16.00;62.10;;;;;;5097130;28;20088;-38
2021/06/04 02:51:32;;;;;;;5.35;3.60;;;16.00;62.20;;;;;;5097945;28;20522;-37
2021/06/04 02:53:59;;;;;;;;;;;16.10;62.40;;;;;;5097445;28;20024;-35
2021/06/04 02:56:38;;;;;;;6.50;3.13;;;16.10;62.00;;;;;;5097952;28;20207;-38
2021/06/04 02:59:12;;;;;;;8.00;3.40;;;16.10;62.30;;;;;;5097027;28;20039;-37
2021/06/04 03:01:42;;;;;;;13.23;3.97;;;16.10;63.00;;;;;;5097493;28;20047;-39
2021/06/04 03:04:09;;;;;;;5.07;3.55;;;16.10;62.60;;;;;;5096720;28;20024;-35
2021/06/04 03:06:50;;;;;;;6.05;3.65;;;16.10;62.60;;;;;;5097585;28;20497;-37
2021/06/04 03:09:20;;;;;;;7.63;3.50;;;16.10;62.50;;;;;;5097006;28;20024;-37
2021/06/04 03:11:48;;;;;;;8.05;3.38;;;16.10;62.60;;;;;;5097433;28;20152;-38
2021/06/04 03:14:15;;;;;;;7.00;3.25;;;16.10;62.60;;;;;;5096674;28;20031;-35
2021/06/04 03:16:42;;;;;;;8.45;3.72;;;16.10;62.60;;;;;;5097460;28;20057;-38
2021/06/04 03:19:12;;;;;;;9.88;3.70;;;16.10;62.50;;;;;;5096394;28;20101;-36
2021/06/04 03:21:47;;;;;;;5.07;3.83;;;16.10;62.60;;;;;;5097227;28;20312;-37
2021/06/04 03:24:17;;;;;;;7.22;3.50;;;16.20;62.80;;;;;;5096376;28;20028;-36
2021/06/04 03:26:43;;;;;;;6.70;3.70;;;16.20;62.80;;;;;;5097255;28;20042;-37
2021/06/04 03:29:13;;;;;;;8.40;3.60;;;16.20;62.80;;;;;;5096533;28;20032;-40
2021/06/04 03:31:43;;;;;;;7.13;3.38;;;16.20;62.70;;;;;;5096996;28;20036;-39
2021/06/04 03:34:10;;;;;;;8.25;3.70;;;16.30;62.70;;;;;;5096426;28;20035;-41
2021/06/04 03:36:45;;;;;;;8.60;3.97;;;16.30;62.60;;;;;;5096062;28;20328;-37
2021/06/04 03:39:17;;;;;;;10.18;4.32;;;16.40;62.80;;;;;;5095750;28;20064;-37
2021/06/04 03:41:47;;;;;;;10.63;3.83;;;16.40;62.70;;;;;;5096867;28;20092;-40
2021/06/04 03:44:15;;;;;;;7.30;4.00;;;16.40;63.00;;;;;;5096151;28;20514;-40
2021/06/04 03:46:42;;;;;;;6.40;3.72;;;16.50;62.80;;;;;;5096642;28;20117;-37
2021/06/04 03:49:09;;;;;;;8.23;3.25;;;16.50;62.80;;;;;;5096161;28;20024;-41
2021/06/04 03:51:40;;;;;;;8.57;3.75;;;16.60;63.30;;;;;;5096518;28;20036;-37
2021/06/04 03:54:09;;;;;;;5.13;3.53;;;16.70;62.70;;;;;;5096054;28;20040;-38
2021/06/04 03:56:36;;;;;;;7.88;3.63;;;16.70;62.50;;;;;;5096359;28;20036;-36
2021/06/04 03:59:04;;;;;;;5.18;3.45;;;16.80;62.30;;;;;;5095656;28;20036;-38
2021/06/04 04:01:40;;;;;;;9.15;3.45;;;16.90;62.20;;;;;;5096504;28;20088;-38
2021/06/04 04:04:06;;;;;;;7.85;3.30;;;17.00;61.90;;;;;;5095307;28;20039;-39
2021/06/04 04:06:33;;;;;;;5.63;3.10;;;17.00;61.70;;;;;;5096136;28;20032;-35
2021/06/04 04:08:59;;;;;;;11.35;3.45;;;17.00;61.50;;;;;;5095027;28;20450;-39
2021/06/04 04:11:25;;;;;;;5.90;3.13;;;17.10;61.30;;;;;;5095790;28;20036;-36
2021/06/04 04:13:51;;;;;;;6.65;4.05;;;17.10;61.20;;;;;;5095693;28;20108;-39
2021/06/04 04:16:17;;;;;;;7.28;3.72;;;17.20;61.10;;;;;;5095972;28;20024;-38
2021/06/04 04:18:43;;;;;;;7.07;3.38;;;17.20;61.00;;;;;;5095411;28;20331;-38
2021/06/04 04:21:11;;;;;;;5.78;4.15;;;17.30;61.00;;;;;;5095409;28;20473;-41
2021/06/04 04:23:57;;;;;;;5.85;3.40;;;17.30;60.90;;;;;;5095572;28;20025;-37
2021/06/04 04:26:28;;;;;;;7.80;3.60;;;17.30;61.10;;;;;;5095338;28;20062;-37
2021/06/04 04:28:54;;;;;;;5.07;3.47;;;17.30;61.20;;;;;;5095115;28;20020;-40
2021/06/04 04:31:24;;;;;;;5.40;3.38;;;17.40;61.10;;;;;;5095522;28;20043;-41
2021/06/04 04:33:51;;;;;;;5.05;3.70;;;17.40;61.00;;;;;;5095022;28;20036;-38
2021/06/04 04:36:19;;;;;;;4.55;3.20;;;17.50;60.90;;;;;;5095580;28;20124;-41
2021/06/04 04:38:46;;;;;;;6.70;3.67;;;17.50;60.50;;;;;;5094839;28;20171;-37
2021/06/04 04:41:12;;;;;;;7.82;3.38;;;17.50;60.90;;;;;;5095366;28;20040;-37
2021/06/04 04:43:40;;;;;;;7.20;3.95;;;17.50;60.30;;;;;;5095017;28;20032;-37
2021/06/04 04:46:08;;;;;;;4.47;2.88;;;17.50;60.30;;;;;;5095399;28;20102;-37
2021/06/04 04:48:34;;;;;;;5.90;3.17;;;17.60;60.10;;;;;;5095209;28;20031;-37
2021/06/04 04:51:00;;;;;;;4.60;3.53;;;17.60;60.20;;;;;;5099518;28;20028;-37
2021/06/04 04:53:26;;;;;;;6.07;3.35;;;17.60;60.10;;;;;;5099008;28;20297;-37
2021/06/04 04:55:53;;;;;;;5.18;3.22;;;17.70;59.80;;;;;;5099606;28;20028;-40
2021/06/04 04:58:20;;;;;;;7.15;3.65;;;17.70;59.90;;;;;;5099789;28;20324;-41
2021/06/04 05:00:46;;;;;;;13.63;3.35;;;17.70;60.00;;;;;;5099389;28;20043;-37
2021/06/04 05:03:14;;;;;;;6.47;2.88;;;17.80;60.00;;;;;;5099126;28;20027;-40
2021/06/04 05:05:40;;;;;;;5.95;3.30;;;17.80;59.50;;;;;;5099303;28;20161;-38
2021/06/04 05:08:07;;;;;;;7.35;3.70;;;17.90;59.70;;;;;;5099318;28;20103;-41
2021/06/04 05:10:34;;;;;;;4.85;3.80;;;17.90;59.50;;;;;;5099419;28;20027;-38
2021/06/04 05:13:01;;;;;;;4.40;3.05;;;18.00;59.30;;;;;;5098846;28;20119;-38
2021/06/04 05:15:30;;;;;;;5.70;3.70;;;18.00;59.10;;;;;;5098673;28;20020;-38
2021/06/04 05:17:56;;;;;;;5.65;2.90;;;18.10;58.80;;;;;;5098907;28;20039;-41
2021/06/04 05:20:24;;;;;;;5.55;3.42;;;18.10;58.70;;;;;;5098819;28;20301;-38
2021/06/04 05:22:50;;;;;;;12.00;3.10;;;18.10;58.80;;;;;;5098529;28;20040;-41
2021/06/04 05:25:19;;;;;;;4.65;3.60;;;18.10;58.90;;;;;;5098313;28;20069;-40
2021/06/04 05:27:45;;;;;;;4.75;3.22;;;18.20;59.00;;;;;;5099315;28;20121;-41
2021/06/04 05:30:36;;;;;;;5.15;3.53;;;18.30;58.70;;;;;;5098402;28;20369;-38
2021/06/04 05:33:03;;;;;;;6.60;3.67;;;18.30;58.40;;;;;;5098448;28;20049;-41
2021/06/04 05:35:29;;;;;;;6.47;3.00;;;18.30;59.20;;;;;;5098605;28;20073;-37
2021/06/04 05:37:55;;;;;;;10.80;3.20;;;18.40;58.60;;;;;;5098511;28;20423;-39
2021/06/04 05:40:28;;;;;;;8.55;3.53;;;18.40;58.50;;;;;;5098534;28;20085;-41
2021/06/04 05:42:54;;;;;;;7.78;3.92;;;18.50;58.40;;;;;;5098576;28;20050;-40
2021/06/04 05:45:23;;;;;;;12.70;4.28;;;18.60;58.20;;;;;;5098081;28;20020;-41
2021/06/04 05:47:49;;;;;;;15.57;3.60;;;18.60;58.00;;;;;;5098640;28;20323;-40
2021/06/04 05:50:20;;;;;;;5.30;3.13;;;18.70;58.10;;;;;;5098372;28;20036;-41
2021/06/04 05:52:46;;;;;;;7.60;4.07;;;18.70;58.10;;;;;;5098699;28;20426;-41
2021/06/04 05:55:16;;;;;;;9.30;4.00;;;18.80;58.00;;;;;;5098171;28;20045;-41
2021/06/04 05:57:42;;;;;;;8.23;3.50;;;18.90;57.50;;;;;;5098548;28;20028;-41
2021/06/04 06:00:16;;;;;;;6.45;3.60;;;18.90;57.10;;;;;;5097862;28;20077;-41
2021/06/04 06:02:42;;;;;;;5.07;3.17;;;18.90;57.20;;;;;;5098290;28;20320;-41
2021/06/04 06:05:08;;;;;;;8.95;3.30;;;19.00;57.10;;;;;;5097657;28;20031;-41
2021/06/04 06:07:34;;;;;;;5.47;2.63;;;19.10;57.10;;;;;;5098480;28;20089;-41
2021/06/04 06:10:00;;;;;;;6.07;3.83;;;19.10;57.10;;;;;;5098152;28;20094;-41
2021/06/04 06:12:26;;;;;;;8.07;3.50;;;19.20;56.80;;;;;;5098340;28;20124;-41
2021/06/04 06:14:52;;;;;;;8.70;3.35;;;19.30;56.60;;;;;;5096871;28;20028;-41
2021/06/04 06:17:17;;;;;;;7.90;3.33;;;19.40;56.60;;;;;;5098113;28;20036;-41
2021/06/04 06:19:43;;;;;;;4.68;3.08;;;19.40;56.70;;;;;;5097732;28;20032;-41
2021/06/04 06:22:10;;;;;;;9.10;3.00;;;19.50;56.30;;;;;;5097939;28;20068;-41
2021/06/04 06:24:36;;;;;;;8.90;3.80;;;19.50;55.70;;;;;;5097173;28;20413;-41
2021/06/04 06:27:02;;;;;;;10.00;3.40;;;19.60;55.60;;;;;;5097421;28;20055;-41
2021/06/04 06:29:29;;;;;;;6.65;3.40;;;19.60;55.20;;;;;;5097812;28;20023;-40
2021/06/04 06:31:55;;;;;;;5.40;3.00;;;19.60;55.20;;;;;;5097419;28;20116;-41
2021/06/04 06:34:21;;;;;;;6.60;3.25;;;19.70;55.50;;;;;;5097003;28;20074;-41
2021/06/04 06:36:47;;;;;;;6.75;3.15;;;19.70;55.60;;;;;;5097661;28;20032;-41
2021/06/04 06:39:26;;;;;;;7.50;3.60;;;19.80;55.50;;;;;;5097029;28;20494;-41
2021/06/04 06:41:53;;;;;;;8.25;3.90;;;19.90;54.80;;;;;;5097601;28;20043;-41
2021/06/04 06:44:19;;;;;;;7.45;3.97;;;19.90;54.30;;;;;;5097305;28;20120;-40
2021/06/04 06:46:46;;;;;;;10.27;6.38;;;20.00;54.10;;;;;;5097617;28;20399;-40
2021/06/04 06:49:12;;;;;;;7.75;4.03;;;20.00;54.60;;;;;;5096632;28;20287;-41
2021/06/04 06:51:38;;;;;;;11.10;3.72;;;20.00;54.70;;;;;;5097124;28;20032;-41
2021/06/04 06:54:07;;;;;;;7.53;3.47;;;20.00;54.80;;;;;;5096838;28;20051;-41
2021/06/04 06:56:34;;;;;;;9.05;3.47;;;20.10;54.40;;;;;;5096879;28;20028;-40
2021/06/04 06:59:00;;;;;;;9.20;3.35;;;20.20;54.20;;;;;;5096710;28;20353;-41
2021/06/04 07:01:27;;;;;;;9.20;4.28;;;20.30;54.10;;;;;;5096813;28;20024;-41
2021/06/04 07:03:52;;;;;;;11.65;4.07;;;20.30;54.00;;;;;;5096675;28;20039;-41
2021/06/04 07:06:25;;;;;;;5.10;3.40;;;20.40;53.60;;;;;;5096853;28;20308;-41
2021/06/04 07:08:52;;;;;;;5.63;3.20;;;20.40;53.10;;;;;;5096890;28;20063;-41
2021/06/04 07:11:19;;;;;;;6.78;3.08;;;20.40;52.30;;;;;;5095785;28;20034;-41
2021/06/04 07:13:48;;;;;;;6.47;4.00;;;20.40;52.60;;;;;;5096043;28;20028;-41
2021/06/04 07:16:13;;;;;;;9.48;3.50;;;20.40;52.90;;;;;;5097058;28;20324;-41
2021/06/04 07:18:40;;;;;;;6.47;3.22;;;20.40;53.60;;;;;;5096554;28;20032;-41
2021/06/04 07:21:09;;;;;;;7.32;2.80;;;20.40;53.20;;;;;;5096332;28;20404;-41
2021/06/04 07:23:35;;;;;;;5.32;3.13;;;20.40;53.20;;;;;;5094052;28;20131;-41
2021/06/04 07:26:01;;;;;;;6.80;2.90;;;20.30;53.10;;;;;;5094099;28;20187;-41
2021/06/04 07:28:32;;;;;;;5.13;2.67;;;20.40;52.70;;;;;;5096154;28;20412;-41
2021/06/04 07:31:00;;;;;;;5.25;2.88;;;20.40;52.50;;;;;;5096254;28;20348;-41
2021/06/04 07:33:31;;;;;;;8.38;3.42;;;20.40;52.40;;;;;;5096023;28;20032;-41
2021/06/04 07:35:59;;;;;;;6.28;3.10;;;20.40;52.00;;;;;;5096095;28;20218;-41
2021/06/04 07:38:25;;;;;;;6.35;3.20;;;20.40;52.50;;;;;;5095757;28;20039;-42
2021/06/04 07:40:53;;;;;;;6.07;2.65;;;20.40;52.40;;;;;;5096023;28;20407;-42
2021/06/04 07:43:25;;;;;;;16.98;3.20;;;20.40;52.40;;;;;;5095828;28;20059;-41
2021/06/04 07:45:51;;;;;;;5.38;3.20;;;20.40;52.00;;;;;;5095847;28;20028;-41
2021/06/04 07:48:20;;;;;;;8.38;3.10;;;20.50;51.80;;;;;;5095530;28;20073;-41
2021/06/04 07:50:48;;;;;;;9.38;3.63;;;20.50;51.80;;;;;;5095813;28;20035;-42
2021/06/04 07:53:16;;;;;;;4.03;2.60;;;20.50;52.00;;;;;;5095851;28;20028;-41
2021/06/04 07:55:42;;;;;;;14.65;3.95;;;20.60;51.40;;;;;;5095645;28;20023;-41
2021/06/04 07:58:08;;;;;;;6.75;2.95;;;20.60;51.40;;;;;;5095395;28;20372;-44
2021/06/04 08:00:35;;;;;;;6.53;2.80;;;20.60;51.50;;;;;;5095031;28;20055;-41
2021/06/04 08:03:03;;;;;;;6.70;3.15;;;20.70;51.20;;;;;;5095420;28;20409;-42
2021/06/04 08:05:30;;;;;;;9.63;2.97;;;20.70;49.90;;;;;;5094859;28;20023;-42
2021/06/04 08:07:57;;;;;;;6.97;2.70;;;20.70;48.90;;;;;;5095759;28;20399;-42
2021/06/04 08:10:23;;;;;;;10.63;2.90;;;20.80;49.30;;;;;;5095609;28;20028;-41
2021/06/04 08:12:50;;;;;;;6.68;2.47;;;20.80;49.70;;;;;;5095468;28;20038;-41
2021/06/04 08:15:30;;;;;;;4.45;2.30;;;20.90;49.70;;;;;;5095444;28;20031;-41
2021/06/04 08:17:56;;;;;;;14.07;2.50;;;20.90;49.30;;;;;;5095165;28;20036;-41
2021/06/04 08:20:29;;;;;;;4.22;2.13;;;21.00;49.00;;;;;;5095710;28;20100;-41
2021/06/04 08:22:58;;;;;;;6.78;2.20;;;21.10;48.20;;;;;;5094972;28;20032;-42
2021/06/04 08:25:33;;;;;;;5.18;2.80;;;21.20;47.50;;;;;;5094922;28;20055;-42
2021/06/04 08:28:00;;;;;;;8.70;2.22;;;21.30;47.60;;;;;;5095433;28;20030;-41
2021/06/04 08:30:26;;;;;;;7.18;2.17;;;21.40;47.70;;;;;;5095613;28;20102;-41
2021/06/04 08:32:53;;;;;;;9.00;2.13;;;21.50;46.00;;;;;;5095284;28;20031;-41
2021/06/04 08:35:21;;;;;;;9.15;2.22;;;21.60;44.40;;;;;;5095208;28;20020;-41
2021/06/04 08:37:47;;;;;;;7.50;2.15;;;21.60;43.60;;;;;;5095238;28;20132;-41
2021/06/04 08:40:22;;;;;;;6.88;2.17;;;21.70;42.80;;;;;;5094629;28;20056;-40
2021/06/04 08:42:53;;;;;;;5.70;1.80;;;21.80;42.20;;;;;;5095694;28;20032;-41
2021/06/04 08:45:34;;;;;;;5.75;1.90;;;21.90;42.20;;;;;;5095067;28;20028;-41
2021/06/04 08:48:05;;;;;;;2.92;1.90;;;21.90;42.20;;;;;;5094092;28;20088;-41
2021/06/04 08:51:07;;;;;;;5.00;1.80;;;22.00;41.70;;;;;;5093695;28;20055;-38
2021/06/04 08:53:50;;;;;;;4.18;2.17;;;22.00;41.90;;;;;;5094944;28;20018;-38
2021/06/04 08:56:19;;;;;;;4.53;1.85;;;22.10;42.30;;;;;;5095367;28;20119;-38
2021/06/04 08:59:08;;;;;;;6.40;2.10;;;22.10;41.40;;;;;;5094973;28;20081;-41
2021/06/04 09:01:51;;;;;;;4.35;1.90;;;22.20;42.70;;;;;;5094980;28;20048;-36
2021/06/04 09:04:26;;;;;;;4.40;2.13;;;22.30;42.80;;;;;;5095339;28;20016;-39
2021/06/04 09:07:17;;;;;;;5.60;1.67;;;22.40;42.40;;;;;;5095121;28;20107;-39
2021/06/04 09:09:53;;;;;;;4.93;2.50;;;22.40;42.40;;;;;;5095211;28;20024;-39
2021/06/04 09:12:23;;;;;;;11.52;2.10;;;22.50;42.30;;;;;;5095233;28;20115;-38
2021/06/04 09:14:51;;;;;;;5.63;2.00;;;22.60;42.20;;;;;;5094926;28;20404;-36
2021/06/04 09:17:42;;;;;;;4.82;2.05;;;22.60;41.70;;;;;;5095055;28;20324;-35
2021/06/04 09:20:23;;;;;;;10.20;2.17;;;22.70;42.00;;;;;;5094882;28;20035;-39
2021/06/04 09:22:58;;;;;;;3.13;1.70;;;22.70;42.20;;;;;;5094736;28;20036;-36
2021/06/04 09:25:26;;;;;;;7.32;2.20;;;22.70;41.10;;;;;;5094922;28;20097;-36
2021/06/04 09:28:10;;;;;;;4.85;1.95;;;22.70;41.10;;;;;;5094947;28;20071;-39
2021/06/04 09:30:46;;;;;;;3.47;1.55;;;22.70;40.80;;;;;;5095177;28;20111;-39
2021/06/04 09:33:27;;;;;;;5.13;1.70;;;22.80;40.90;;;;;;5094694;28;20433;-36
2021/06/04 09:35:58;;;;;;;4.53;1.90;;;22.70;40.50;;;;;;5097081;28;20079;-39
2021/06/04 09:38:32;;;;;;;6.90;1.85;;;22.80;40.80;;;;;;5098376;28;20387;-39
2021/06/04 09:41:16;;;;;;;6.63;1.77;;;22.90;41.00;;;;;;5098223;28;20408;-36
2021/06/04 09:43:42;;;;;;;8.32;2.00;;;23.00;40.50;;;;;;5098620;28;20430;-37
2021/06/04 09:46:11;;;;;;;4.22;2.00;;;23.10;40.40;;;;;;5098330;28;20107;-36
2021/06/04 09:48:37;;;;;;;6.00;1.80;;;23.10;40.50;;;;;;5098495;28;20023;-36
2021/06/04 09:51:08;;;;;;;4.50;1.90;;;23.20;40.60;;;;;;5098098;28;20024;-36
2021/06/04 09:53:33;;;;;;;5.68;2.33;;;23.20;40.00;;;;;;5097038;28;20055;-36
2021/06/04 09:56:08;;;;;;;7.22;1.95;;;23.30;39.40;;;;;;5104026;28;20408;-36
2021/06/04 09:58:48;;;;;;;3.33;1.65;;;23.40;38.90;;;;;;5118800;28;20311;-36
2021/06/04 10:01:16;;;;;;;4.03;1.55;;;23.40;37.80;;;;;;5118552;28;20039;-36
2021/06/04 10:03:42;;;;;;;6.18;2.00;;;23.40;37.90;;;;;;5118065;28;20028;-36
2021/06/04 10:06:07;;;;;;;8.20;2.03;;;23.40;37.70;;;;;;5118304;28;20085;-42
2021/06/04 10:08:49;;;;;;;4.90;2.35;;;23.40;37.70;;;;;;5118465;28;20023;-44
2021/06/04 10:11:24;;;;;;;7.97;2.05;;;23.30;37.70;;;;;;5116689;28;20296;-42
2021/06/04 10:19:34;;;;;;;4.32;1.58;;;23.20;39.60;;;;;;5117971;28;20024;-42
2021/06/04 10:22:06;;;;;;;5.80;2.00;;;23.10;38.70;;;;;;5117257;28;20055;-42
2021/06/04 10:24:38;;;;;;;11.45;2.88;;;23.10;38.40;;;;;;5117817;27;20023;-42
2021/06/04 10:27:17;;;;;;;5.00;3.00;;;23.10;39.90;;;;;;5117982;28;20028;-42
2021/06/04 10:29:56;;;;;;;5.13;1.93;;;23.20;39.60;;;;;;5117958;28;20066;-43
2021/06/04 10:32:23;;;;;;;5.85;2.03;;;23.20;38.20;;;;;;5118262;28;20314;-42
2021/06/04 10:35:12;;;;;;;9.82;2.28;;;23.30;39.20;;;;;;5117938;28;20040;-42
2021/06/04 10:38:09;;;;;;;6.15;2.40;;;23.40;39.50;;;;;;5108534;28;20402;-42
2021/06/04 10:40:57;;;;;;;5.32;1.50;;;23.50;39.90;;;;;;5117859;28;20027;-44
2021/06/04 10:43:56;;;;;;;2.78;1.40;;;23.50;39.10;;;;;;5117555;28;20027;-42
2021/06/04 10:46:39;;;;;;;4.55;2.03;;;23.60;38.50;;;;;;5117408;28;20043;-44
2021/06/04 10:49:05;;;;;;;5.50;2.17;;;23.60;39.30;;;;;;5117423;28;20019;-42
2021/06/04 10:52:04;;;;;;;7.00;3.70;;;23.50;38.80;;;;;;5117793;28;20035;-47
2021/06/04 10:54:54;;;;;;;9.05;3.05;;;23.60;40.00;;;;;;5094154;28;20055;-46
2021/06/04 10:57:50;;;;;;;9.98;2.95;;;23.70;39.80;;;;;;5096795;28;20036;-45
2021/06/04 11:00:26;;;;;;;4.60;2.85;;;23.80;39.00;;;;;;5096884;28;20146;-42
2021/06/04 11:03:22;;;;;;;10.63;3.08;;;23.90;39.20;;;;;;5095209;28;20040;-44
2021/06/04 11:05:50;;;;;;;10.82;3.30;;;24.00;39.70;;;;;;5096603;28;20037;-42
2021/06/04 11:08:55;;;;;;;5.28;2.67;;;24.00;39.40;;;;;;5096191;28;20035;-43
2021/06/04 11:12:07;;;;;;;7.85;2.00;;;24.00;39.60;;;;;;5089474;28;20123;-41
2021/06/04 11:15:14;;;;;;;5.10;1.90;;;24.00;38.80;;;;;;5094638;28;20047;-42
2021/06/04 11:17:56;;;;;;;8.02;2.28;;;24.10;37.80;;;;;;5090899;28;20095;-41
2021/06/04 11:20:27;;;;;;;8.75;2.53;;;24.20;37.00;;;;;;5096449;28;20098;-43
2021/06/04 11:23:24;;;;;;;2.80;2.08;;;24.30;37.00;;;;;;5095657;28;20035;-42
2021/06/04 11:26:01;;;;;;;6.75;2.85;;;24.30;37.20;;;;;;5095595;28;20114;-41
2021/06/04 11:28:49;;;;;;;8.63;1.83;;;24.30;37.80;;;;;;5096330;28;20016;-44
2021/06/04 11:31:27;;;;;;;5.90;2.58;;;24.30;36.60;;;;;;5096581;28;20112;-41
2021/06/04 11:33:56;;;;;;;6.15;2.70;;;24.30;37.30;;;;;;5092663;28;20375;-43
2021/06/04 11:36:24;;;;;;;3.40;1.98;;;24.30;38.60;;;;;;5095260;28;20032;-43
2021/06/04 11:39:14;;;;;;;6.05;2.08;;;24.30;38.30;;;;;;5095128;28;20076;-42
2021/06/04 11:41:52;;;;;;;;;;;24.30;37.90;;;;;;5096427;28;20044;-43
2021/06/04 11:44:34;;;;;;;6.72;2.25;;;24.30;38.70;;;;;;5095607;28;20212;-44
2021/06/04 11:47:14;;;;;;;3.85;1.88;;;24.40;39.10;;;;;;5095776;28;20044;-41
2021/06/04 11:49:54;;;;;;;2.63;1.80;;;24.30;38.50;;;;;;5095429;28;20044;-42
2021/06/04 11:52:38;;;;;;;;;;;24.20;39.10;;;;;;5096815;28;20093;-43
2021/06/04 11:55:25;;;;;;;6.80;2.28;;;24.10;39.00;;;;;;5095432;28;19935;-42
2021/06/04 11:58:19;;;;;;;6.45;2.00;;;24.10;39.10;;;;;;5095166;28;20067;-43
2021/06/04 12:00:52;;;;;;;5.60;2.08;;;24.00;39.00;;;;;;5095569;28;20032;-41
2021/06/04 12:03:25;;;;;;;3.35;2.25;;;24.00;39.60;;;;;;5095431;28;20035;-41
2021/06/04 12:05:57;;;;;;;5.78;2.22;;;24.00;39.70;;;;;;5095557;28;20040;-44
2021/06/04 12:08:28;;;;;;;4.72;1.80;;;24.00;40.00;;;;;;5095780;28;20016;-41
2021/06/04 12:10:54;;;;;;;8.57;2.30;;;24.10;39.40;;;;;;5095649;28;20038;-43
2021/06/04 12:13:49;;;;;;;3.75;1.83;;;24.10;38.80;;;;;;5095320;28;20020;-41
2021/06/04 12:16:27;;;;;;;12.05;2.10;;;24.10;38.70;;;;;;5095415;28;20469;-43
2021/06/04 12:19:05;;;;;;;6.93;2.60;;;24.10;37.70;;;;;;5095277;28;20028;-42
2021/06/04 12:21:40;;;;;;;12.65;1.98;;;24.20;38.30;;;;;;5095068;28;20040;-42
2021/06/04 12:24:20;;;;;;;5.25;1.83;;;24.40;38.00;;;;;;5094761;28;20016;-44
2021/06/04 12:26:57;;;;;;;5.77;2.60;;;24.60;37.50;;;;;;5095655;28;20315;-45
2021/06/04 12:29:23;;;;;;;10.25;1.85;;;24.80;38.20;;;;;;5094839;28;20027;-44
2021/06/04 12:31:58;;;;;;;6.97;2.08;;;25.00;36.50;;;;;;5094909;28;20036;-43
2021/06/04 12:34:35;;;;;;;5.47;1.70;;;25.10;37.10;;;;;;5095132;28;20467;-43
2021/06/04 12:37:13;;;;;;;5.85;1.60;;;25.30;35.60;;;;;;5095262;28;20047;-43
2021/06/04 12:40:03;;;;;;;10.00;2.38;;;25.40;35.90;;;;;;5094908;28;20028;-43
2021/06/04 12:42:38;;;;;;;5.35;1.95;;;25.40;35.10;;;;;;5095541;28;20032;-43
2021/06/04 12:45:26;;;;;;;4.53;2.00;;;25.40;35.50;;;;;;5094863;28;20028;-46
2021/06/04 12:48:09;;;;;;;4.72;2.03;;;25.40;35.50;;;;;;5095393;28;20340;-44
2021/06/04 12:50:41;;;;;;;12.20;2.25;;;25.30;36.60;;;;;;5095007;28;20016;-42
2021/06/04 12:53:27;;;;;;;8.63;2.03;;;25.30;36.80;;;;;;5095184;28;20038;-43
2021/06/04 12:55:59;;;;;;;7.13;2.28;;;25.50;36.30;;;;;;5087724;28;20040;-44
2021/06/04 12:58:46;;;;;;;4.63;1.92;;;25.70;36.20;;;;;;5095002;28;20028;-43
2021/06/04 13:01:32;;;;;;;6.50;2.00;;;25.90;36.20;;;;;;5094919;28;20419;-43
2021/06/04 13:04:13;;;;;;;5.18;2.05;;;26.00;35.00;;;;;;5093808;28;20028;-44
2021/06/04 13:06:42;;;;;;;6.82;2.22;;;26.10;35.70;;;;;;5094819;28;20063;-42
2021/06/04 13:09:22;;;;;;;3.08;1.63;;;26.10;36.60;;;;;;5094810;28;20129;-42
2021/06/04 13:11:48;;;;;;;5.97;1.92;;;26.10;35.20;;;;;;5098931;28;20028;-44
2021/06/04 13:14:17;;;;;;;6.82;1.55;;;26.00;35.00;;;;;;5099264;28;20039;-45
2021/06/04 13:16:43;;;;;;;3.85;2.00;;;25.90;35.40;;;;;;5099059;28;20035;-44
2021/06/04 13:19:13;;;;;;;7.90;1.75;;;25.70;36.50;;;;;;5098753;28;20032;-43
2021/06/04 13:21:40;;;;;;;3.42;1.67;;;25.70;37.30;;;;;;5099165;28;20301;-46